createdAt,value
2022-10-19T00:06:00.227Z,6.95
2022-10-19T00:16:04.949Z,6.91
2022-10-19T00:26:11.302Z,6.85
2022-10-19T00:36:17.952Z,6.95
2022-10-19T00:46:22.125Z,6.91
2022-10-19T00:56:25.427Z,6.77
2022-10-19T01:06:29.727Z,6.63
2022-10-19T01:16:37.346Z,6.48
2022-10-19T01:26:52.171Z,6.39
2022-10-19T01:36:59.186Z,6.37
2022-10-19T01:47:05.319Z,6.33
2022-10-19T01:57:11.420Z,6.26
2022-10-19T02:07:14.329Z,6.25
2022-10-19T02:17:20.969Z,6.25
2022-10-19T02:27:23.881Z,6.20
2022-10-19T02:37:28.093Z,6.07
2022-10-19T02:47:33.478Z,6.05
2022-10-19T02:57:37.862Z,5.94
2022-10-19T03:07:41.488Z,5.89
2022-10-19T03:17:45.579Z,5.79
2022-10-19T03:27:48.430Z,5.58
2022-10-19T03:37:52.497Z,5.45
2022-10-19T03:47:55.294Z,5.47
2022-10-19T03:57:59.407Z,5.38
2022-10-19T04:08:02.171Z,5.23
2022-10-19T04:18:06.397Z,5.23
2022-10-19T04:28:09.143Z,5.23
2022-10-19T04:38:13.221Z,5.29
2022-10-19T04:48:15.940Z,5.30
2022-10-19T04:58:20.317Z,5.28
2022-10-19T05:08:23.027Z,5.14
2022-10-19T05:18:27.172Z,5.05
2022-10-19T05:28:30.174Z,5.03
2022-10-19T05:38:34.322Z,5.05
2022-10-19T05:48:37.104Z,5.00
2022-10-19T05:58:41.196Z,4.91
2022-10-19T06:08:43.912Z,4.97
2022-10-19T06:18:48.421Z,4.93
2022-10-19T06:28:51.467Z,5.01
2022-10-19T06:38:56.657Z,5.15
2022-10-19T06:49:00.982Z,5.27
2022-10-19T06:59:05.504Z,5.39
2022-10-19T07:09:08.367Z,5.56
2022-10-19T07:19:13.638Z,5.75
2022-10-19T07:29:16.517Z,6.00
2022-10-19T07:39:21.122Z,6.23
2022-10-19T07:49:24.006Z,6.45
2022-10-19T07:59:28.402Z,6.67
2022-10-19T08:09:52.134Z,6.96
2022-10-19T08:19:55.518Z,7.28
2022-10-19T08:29:58.408Z,7.60
2022-10-19T08:40:02.756Z,7.95
2022-10-19T08:50:11.511Z,8.32
2022-10-19T09:00:18.620Z,8.73
2022-10-19T09:10:25.030Z,9.06
2022-10-19T09:20:32.978Z,9.44
2022-10-19T09:30:36.554Z,9.87
2022-10-19T09:40:40.728Z,10.10
2022-10-19T09:50:44.501Z,10.44
2022-10-19T10:00:50.708Z,10.70
2022-10-19T10:10:59.282Z,10.98
2022-10-19T10:21:07.006Z,11.16
2022-10-19T10:31:10.660Z,11.46
2022-10-19T10:41:17.826Z,11.76
2022-10-19T10:51:22.011Z,11.91
2022-10-19T11:01:29.639Z,12.00
2022-10-19T11:11:36.125Z,12.24
2022-10-19T11:21:43.829Z,12.40
2022-10-19T11:31:49.580Z,12.61
2022-10-19T11:41:59.173Z,12.60
2022-10-19T11:52:06.782Z,12.77
2022-10-19T12:02:18.599Z,12.86
2022-10-19T12:12:25.436Z,13.05
2022-10-19T12:22:31.044Z,13.11
2022-10-19T12:32:38.719Z,13.20
2022-10-19T12:42:51.537Z,13.29
2022-10-19T12:52:54.782Z,13.38
2022-10-19T13:03:00.344Z,13.47
2022-10-19T13:13:03.328Z,13.50
2022-10-19T13:23:24.858Z,13.46
2022-10-19T13:33:54.077Z,13.35
2022-10-19T13:44:03.025Z,13.27
2022-10-19T13:54:12.353Z,13.12
2022-10-19T14:04:28.548Z,13.07
2022-10-19T14:14:31.451Z,13.27
2022-10-19T14:24:36.333Z,13.42
2022-10-19T14:34:41.049Z,13.68
2022-10-19T14:44:45.422Z,13.87
2022-10-19T14:54:49.560Z,13.86
2022-10-19T15:04:54.338Z,13.83
2022-10-19T15:14:58.204Z,13.50
2022-10-19T15:25:08.642Z,13.14
2022-10-19T15:35:12.575Z,12.82
2022-10-19T15:45:33.751Z,12.52
2022-10-19T15:55:37.039Z,12.32
2022-10-19T16:05:41.355Z,12.10
2022-10-19T16:15:44.363Z,11.86
2022-10-19T16:25:48.442Z,11.64
2022-10-19T16:35:51.324Z,11.38
2022-10-19T16:45:55.412Z,11.17
2022-10-19T16:56:04.638Z,10.96
2022-10-19T17:06:09.190Z,10.80
2022-10-19T17:16:12.361Z,10.72
2022-10-19T17:26:16.566Z,10.62
2022-10-19T17:36:20.314Z,10.60
2022-10-19T17:46:25.987Z,10.57
2022-10-19T17:56:29.071Z,10.52
2022-10-19T18:06:34.033Z,10.46
2022-10-19T18:16:38.361Z,10.34
2022-10-19T18:26:42.584Z,10.18
2022-10-19T18:36:45.553Z,10.01
2022-10-19T18:46:49.830Z,9.96
2022-10-19T18:56:52.806Z,9.91
2022-10-19T19:06:56.949Z,9.83
2022-10-19T19:16:59.872Z,9.79
2022-10-19T19:27:04.138Z,9.71
2022-10-19T19:37:10.336Z,9.61
2022-10-19T19:47:15.442Z,9.52
2022-10-19T19:57:18.413Z,9.38
2022-10-19T20:07:22.712Z,9.29
2022-10-19T20:17:25.490Z,9.18
2022-10-19T20:27:29.929Z,9.21
2022-10-19T20:37:32.758Z,9.19
2022-10-19T20:47:36.896Z,9.31
2022-10-19T20:57:39.938Z,9.27
2022-10-19T21:07:44.050Z,9.25
2022-10-19T21:17:48.521Z,9.19
2022-10-19T21:27:53.947Z,9.19
2022-10-19T21:37:56.678Z,9.12
2022-10-19T21:48:00.894Z,9.05
2022-10-19T21:58:03.689Z,9.02
2022-10-19T22:08:07.838Z,8.98
2022-10-19T22:18:10.578Z,8.94
2022-10-19T22:28:14.679Z,8.87
2022-10-19T22:38:17.387Z,8.83
2022-10-19T22:48:21.598Z,8.88
2022-10-19T22:58:24.361Z,8.90
2022-10-19T23:08:28.723Z,8.85
2022-10-19T23:18:31.629Z,8.69
2022-10-19T23:28:36.608Z,8.59
2022-10-19T23:38:39.816Z,8.51
2022-10-19T23:48:44.119Z,8.48
2022-10-19T23:58:46.797Z,8.46
